world map with XOG marked

XOG - Airport

This information may not be accurate or current and is not valid for navigation or flight planning. No warranty of fitness for any purpose is made or implied.

flag of Provence-Alpes-Côte d'Azurflag of France

Donate via PayPal

Additional information is available on the NEW Great Circle Mapper

Location
City:  Orange, Provence-Alpes-Côte d'Azur, France
Name:Caritat
ICAO / IATA:LFMO / XOG

Details
Type:Airport (Aerodrome, Airfield)
Use:Military
Latitude:44°08'24"N (44.140089)
Longitude:4°52'07"E (4.868581)
Elevation:197 ft (60 m)
Runways:2
Longest:7897 × 197 ft (2407 × 60 m)

Time
Timezone:UTC+1 (DST+4)
Local Time:

Weather
METAR:LFMO  041400Z AUTO 35015KT CAVOK 09/M02 Q1025 NOSIG
TAF:LFMO  041400Z 0415/0515 34015KT CAVOK BECMG 0506/0508 35015G25KT

Related Locations
Nearby:
Farthest:CHT: 12369 mi / 19906 km
Waitangi [Tuuta], CIT, NZ

Find:

   beyond  
but within

Other Information
Maps:
Sources:

  


 


Great Circle Mapper   Great Circle Mapper
Great Circle Mapper FAQ   Great Circle Mapper FAQ
  Karl's Home Page
KLS²   KLS² Home
   GC on Facebook
Airlines of the World   Airlines of the World
Donate via PayPal


Copyright © 2004-2022, Karl L. Swartz. All rights reserved.
All trademarks mentioned herein belong to their respective owners.

Please see credits for attribution and copyright information.

Karl Swartz <karl@kls2.com>
  Powered by FreeBSD
Valid HTML 4.01!
Labeled with ICRA
hCard Microformat
Geo Microformat